Boulder Municipal Airport


Codes: KBDU/WBU
Name: Boulder Municipal Airport
City: Boulder
Country: United States
Elevation: 5288 ft.
Website:
Wikipedia:

Photos at Boulder Municipal Airport


   Photos courtesy of SpottingLog. You can add your own sightings and photos by signing up for a free trial today.



No photos found.

Weather at Boulder Municipal Airport


Time (UTC)DescriptionTempratureWindCloud coverageVisibilityPressureHumidity
25-Jun-2024 21:00Clear Sky36°C11 mph, NW0%10000m1013hPa15%
26-Jun-2024 00:00Few Clouds34°C13 mph, S20%10000m1012hPa18%
26-Jun-2024 03:00Scattered Clouds27°C7 mph, SW30%10000m1014hPa31%
26-Jun-2024 06:00Scattered Clouds20°C9 mph, W30%10000m1015hPa42%
26-Jun-2024 09:00Clear Sky20°C9 mph, W0%10000m1014hPa38%
26-Jun-2024 12:00Clear Sky19°C7 mph, W1%10000m1015hPa40%
26-Jun-2024 15:00Few Clouds26°C7 mph, NE13%10000m1014hPa29%
26-Jun-2024 18:00Broken Clouds30°C7 mph, NE54%10000m1012hPa24%
26-Jun-2024 21:00Light Rain27°C11 mph, NW100%10000m1011hPa37%
27-Jun-2024 00:00Light Rain26°C2 mph, S98%10000m1009hPa40%
27-Jun-2024 03:00Light Rain22°C13 mph, NW100%10000m1012hPa60%
27-Jun-2024 06:00Light Rain20°C9 mph, W100%10000m1009hPa63%
27-Jun-2024 09:00Broken Clouds19°C7 mph, W60%10000m1009hPa68%
27-Jun-2024 12:00Broken Clouds19°C9 mph, W60%10000m1008hPa60%
27-Jun-2024 15:00Overcast Clouds28°C7 mph, W99%10000m1005hPa34%
27-Jun-2024 18:00Overcast Clouds29°C9 mph, NW100%10000m1003hPa29%
27-Jun-2024 21:00Overcast Clouds32°C13 mph, W100%10000m1000hPa24%
28-Jun-2024 00:00Light Rain27°C7 mph, SW99%10000m1001hPa38%
28-Jun-2024 03:00Light Rain20°C11 mph, NW100%10000m1005hPa63%
28-Jun-2024 06:00Overcast Clouds19°C9 mph, W100%10000m1005hPa58%
28-Jun-2024 09:00Overcast Clouds18°C9 mph, SW100%10000m1004hPa59%
28-Jun-2024 12:00Broken Clouds17°C11 mph, W68%10000m1006hPa60%
28-Jun-2024 15:00Scattered Clouds28°C9 mph, W32%10000m1003hPa28%
28-Jun-2024 18:00Scattered Clouds31°C18 mph, NW25%10000m1003hPa19%
28-Jun-2024 21:00Scattered Clouds32°C18 mph, NW39%10000m1002hPa20%
29-Jun-2024 00:00Light Rain22°C11 mph, W55%10000m1007hPa44%
29-Jun-2024 03:00Broken Clouds19°C9 mph, W59%10000m1012hPa51%
29-Jun-2024 06:00Scattered Clouds17°C7 mph, N29%10000m1015hPa53%
29-Jun-2024 09:00Clear Sky12°C4 mph, NW4%10000m1020hPa52%
29-Jun-2024 12:00Clear Sky11°C2 mph, W3%10000m1021hPa62%
29-Jun-2024 15:00Clear Sky17°C4 mph, E1%10000m1021hPa43%
29-Jun-2024 18:00Few Clouds24°C7 mph, SE14%10000m1016hPa30%
29-Jun-2024 21:00Broken Clouds31°C9 mph, SE69%10000m1011hPa23%
30-Jun-2024 00:00Light Rain23°C2 mph, S70%10000m1013hPa53%
30-Jun-2024 03:00Light Rain19°C4 mph, NW33%10000m1014hPa67%
30-Jun-2024 06:00Few Clouds19°C7 mph, W18%10000m1016hPa64%
30-Jun-2024 09:00Broken Clouds17°C4 mph, W80%10000m1015hPa66%
30-Jun-2024 12:00Scattered Clouds16°C4 mph, W43%10000m1015hPa56%
30-Jun-2024 15:00Broken Clouds27°C4 mph, E58%10000m1013hPa32%
30-Jun-2024 18:00Broken Clouds31°C4 mph, SE78%10000m1011hPa24%